Time;durP1;ratioP1;P1;durP2;ratioP2;P2;SDS_P1;SDS_P2;PMS_P1;PMS_P2;Temp;Humidity;BMP_temperature;BMP_pressure;BME280_temperature;BME280_humidity;BME280_pressure;Samples;Min_cycle;Max_cycle;Signal;HPM_P1;HPM_P2
2021/06/02 00:01:49;;;;;;;2.97;1.50;;;;;;;11.09;67.54;93629.19;5072864;28;20195;-75
2021/06/02 00:04:21;;;;;;;4.13;1.60;;;;;;;10.91;66.75;93633.28;5073082;28;20207;-74
2021/06/02 00:06:49;;;;;;;2.53;1.77;;;;;;;11.04;66.18;93636.84;5073053;28;20240;-75
2021/06/02 00:09:17;;;;;;;4.70;1.47;;;;;;;10.87;68.90;93632.06;5072898;28;20202;-74
2021/06/02 00:11:43;;;;;;;2.80;1.93;;;;;;;10.80;68.59;93635.72;5072864;28;20681;-74
2021/06/02 00:14:10;;;;;;;5.37;1.43;;;;;;;10.63;69.15;93630.94;5072726;28;20233;-74
2021/06/02 00:16:38;;;;;;;4.43;2.07;;;;;;;10.59;70.64;93628.94;5073021;28;20198;-75
2021/06/02 00:19:05;;;;;;;5.87;1.80;;;;;;;10.78;69.44;93629.91;5072651;28;20206;-73
2021/06/02 00:21:33;;;;;;;2.23;1.70;;;;;;;10.72;69.37;93632.34;5072836;28;20206;-74
2021/06/02 00:23:59;;;;;;;2.37;1.70;;;;;;;10.58;69.18;93625.53;5072718;28;20266;-76
2021/06/02 00:26:27;;;;;;;5.97;1.80;;;;;;;10.44;71.28;93634.38;5072700;28;20199;-74
2021/06/02 00:28:53;;;;;;;4.70;1.67;;;;;;;10.40;70.43;93628.75;5072629;28;20198;-74
2021/06/02 00:31:20;;;;;;;3.73;1.80;;;;;;;10.29;72.54;93634.56;5072876;28;20621;-76
2021/06/02 00:33:46;;;;;;;3.13;1.70;;;;;;;10.21;73.09;93635.59;5072630;28;20233;-74
2021/06/02 00:36:13;;;;;;;5.63;1.70;;;;;;;10.27;70.99;93636.56;5073216;28;20209;-74
2021/06/02 00:38:40;;;;;;;1.90;1.70;;;;;;;10.06;73.10;93633.19;5074202;28;20654;-75
2021/06/02 00:41:09;;;;;;;4.63;1.90;;;;;;;9.88;75.93;93636.38;5072518;28;20206;-75
2021/06/02 00:43:40;;;;;;;7.80;1.97;;;;;;;9.75;75.17;93633.75;5072367;28;20202;-75
2021/06/02 00:46:10;;;;;;;3.13;1.83;;;;;;;9.72;77.80;93629.72;5072744;28;20203;-76
2021/06/02 00:48:37;;;;;;;3.53;1.70;;;;;;;9.66;76.30;93634.94;5072547;28;20319;-75
2021/06/02 00:51:04;;;;;;;4.47;1.57;;;;;;;9.58;76.35;93634.13;5072427;28;20680;-75
2021/06/02 00:53:30;;;;;;;2.20;1.50;;;;;;;9.60;76.86;93624.28;5072479;28;20231;-75
2021/06/02 00:56:03;;;;;;;3.23;1.80;;;;;;;9.69;75.06;93627.53;5072373;28;20610;-75
2021/06/02 00:58:31;;;;;;;4.77;1.90;;;;;;;9.67;74.98;93620.91;5072619;28;20217;-75
2021/06/02 01:00:59;;;;;;;2.33;1.70;;;;;;;9.68;75.42;93618.09;5072546;28;20194;-75
2021/06/02 01:03:29;;;;;;;1.77;1.60;;;;;;;9.57;77.44;93618.69;5074024;28;20230;-75
2021/06/02 01:05:56;;;;;;;1.90;1.67;;;;;;;9.50;76.49;93616.06;5076170;28;20281;-75
2021/06/02 01:08:24;;;;;;;4.87;1.83;;;;;;;9.39;78.13;93629.66;5076038;28;20229;-75
2021/06/02 01:10:52;;;;;;;5.67;1.90;;;;;;;9.40;76.64;93623.47;5076305;28;20229;-76
2021/06/02 01:13:19;;;;;;;6.57;2.07;;;;;;;9.46;77.64;93625.28;5076180;28;20569;-76
2021/06/02 01:15:47;;;;;;;4.33;2.37;;;;;;;9.36;78.02;93624.84;5076016;28;20198;-75
2021/06/02 01:18:15;;;;;;;4.30;1.77;;;;;;;9.21;79.14;93622.41;5075941;28;20250;-75
2021/06/02 01:20:41;;;;;;;2.70;1.67;;;;;;;9.14;77.89;93619.75;5075852;28;20203;-75
2021/06/02 01:23:10;;;;;;;3.70;1.80;;;;;;;9.07;79.66;93627.56;5075481;28;20241;-75
2021/06/02 01:25:39;;;;;;;3.07;2.03;;;;;;;9.07;77.88;93624.94;5076010;28;20203;-74
2021/06/02 01:28:05;;;;;;;6.10;1.90;;;;;;;9.07;78.94;93621.56;5075847;28;20209;-75
2021/06/02 01:30:32;;;;;;;2.63;1.80;;;;;;;9.09;78.49;93619.53;5075810;28;20203;-75
2021/06/02 01:33:15;;;;;;;9.60;2.00;;;;;;;9.11;77.57;93614.97;5075785;28;20233;-75
2021/06/02 01:36:04;;;;;;;2.43;1.70;;;;;;;9.11;78.54;93627.16;5075643;28;20237;-75
2021/06/02 01:39:06;;;;;;;3.27;1.63;;;;;;;9.07;78.92;93626.75;5075764;28;20237;-75
2021/06/02 01:41:52;;;;;;;3.33;1.50;;;;;;;9.13;77.61;93620.78;5075666;28;20563;-75
2021/06/02 01:45:03;;;;;;;4.37;1.97;;;;;;;9.05;78.69;93623.56;5075682;28;20237;-75
2021/06/02 01:48:00;;;;;;;3.97;2.00;;;;;;;8.87;78.89;93622.25;5075503;28;20288;-75
2021/06/02 01:50:40;;;;;;;2.13;1.60;;;;;;;8.95;77.61;93623.13;5075656;28;20211;-75
2021/06/02 01:53:56;;;;;;;2.30;1.50;;;;;;;8.98;79.69;93627.94;5075139;28;20538;-75
2021/06/02 01:56:49;;;;;;;2.20;1.80;;;;;;;8.96;78.85;93624.69;5039113;28;20738;-75
2021/06/02 01:59:52;;;;;;;6.80;1.80;;;;;;;8.79;79.95;93630.25;5075331;28;20199;-75
2021/06/02 02:02:34;;;;;;;2.93;1.87;;;;;;;8.63;80.83;93625.38;5075126;28;20205;-75
2021/06/02 02:05:14;;;;;;;7.37;1.97;;;;;;;8.47;80.87;93624.66;5075371;28;20198;-75
2021/06/02 02:08:06;;;;;;;3.43;1.70;;;;;;;8.66;79.25;93624.97;5075241;28;20195;-75
2021/06/02 02:10:45;;;;;;;5.67;1.70;;;;;;;8.37;82.29;93621.56;5075089;28;20195;-76
2021/06/02 02:13:25;;;;;;;3.10;2.00;;;;;;;8.20;82.23;93620.28;5074940;28;20210;-75
2021/06/02 02:16:05;;;;;;;4.30;2.10;;;;;;;8.12;83.90;93616.81;5075156;28;20565;-75
2021/06/02 02:18:40;;;;;;;3.22;2.00;;;;;;;8.12;85.34;93616.00;5074416;28;20900;-74
2021/06/02 02:21:11;;;;;;;2.87;1.77;;;;;;;8.29;83.12;93619.13;5074789;28;20202;-76
2021/06/02 02:23:41;;;;;;;5.23;1.70;;;;;;;8.28;83.94;93614.94;5074476;28;20242;-75
2021/06/02 02:26:20;;;;;;;4.50;2.20;;;;;;;8.27;84.82;93618.50;5074927;28;20601;-75
2021/06/02 02:28:52;;;;;;;4.73;1.97;;;;;;;8.06;85.11;93620.19;5074721;28;20645;-75
2021/06/02 02:31:36;;;;;;;6.13;2.00;;;;;;;7.91;85.51;93622.84;5074721;28;20198;-75
2021/06/02 02:34:06;;;;;;;3.03;1.87;;;;;;;8.00;86.57;93628.72;5074534;28;20202;-74
2021/06/02 02:36:37;;;;;;;2.30;1.57;;;;;;;8.11;84.77;93628.22;5074680;28;20203;-75
2021/06/02 02:39:13;;;;;;;2.27;1.70;;;;;;;8.19;83.95;93623.84;5075091;28;20203;-75
2021/06/02 02:41:51;;;;;;;3.83;1.83;;;;;;;8.10;84.06;93628.41;5074998;28;20204;-75
2021/06/02 02:44:49;;;;;;;3.50;1.87;;;;;;;7.88;85.01;93631.03;5074218;28;20280;-75
2021/06/02 02:47:22;;;;;;;2.83;1.73;;;;;;;7.74;86.29;93637.91;5074464;28;20218;-75
2021/06/02 02:49:59;;;;;;;4.80;1.77;;;;;;;7.64;86.93;93637.41;5074220;28;20198;-75
2021/06/02 02:52:41;;;;;;;8.03;2.00;;;;;;;7.71;87.41;93643.47;5074095;28;20248;-75
2021/06/02 02:55:12;;;;;;;3.17;1.70;;;;;;;7.74;87.20;93643.13;5074300;28;20558;-75
2021/06/02 02:57:44;;;;;;;3.80;1.83;;;;;;;7.97;85.63;93644.69;5074265;28;20203;-75
2021/06/02 03:00:14;;;;;;;3.10;2.00;;;;;;;7.96;86.65;93645.69;5074113;28;20199;-75
2021/06/02 03:02:49;;;;;;;5.63;2.10;;;;;;;7.93;86.94;93644.25;5073897;28;20557;-74
2021/06/02 03:05:22;;;;;;;5.57;1.70;;;;;;;7.85;87.00;93647.00;5074260;28;20280;-75
2021/06/02 03:07:56;;;;;;;2.10;1.67;;;;;;;7.79;87.63;93647.72;5073834;28;20203;-75
2021/06/02 03:10:23;;;;;;;4.33;2.43;;;;;;;7.68;89.80;93643.84;5073963;28;20294;-75
2021/06/02 03:13:01;;;;;;;2.63;2.00;;;;;;;7.73;88.10;93651.09;5073801;28;20206;-74
2021/06/02 03:15:39;;;;;;;3.17;2.10;;;;;;;7.63;87.82;93656.59;5073636;28;20608;-75
2021/06/02 03:18:15;;;;;;;6.17;2.13;;;;;;;7.55;90.57;93659.31;5073800;28;20604;-75
2021/06/02 03:20:47;;;;;;;3.17;2.10;;;;;;;7.56;92.51;93663.50;5073769;28;20195;-75
2021/06/02 03:23:30;;;;;;;5.40;2.53;;;;;;;7.44;93.07;93667.56;5073336;28;20701;-75
2021/06/02 03:26:03;;;;;;;4.03;1.67;;;;;;;7.45;90.85;93664.78;5072865;28;20285;-75
2021/06/02 03:28:50;;;;;;;3.20;1.90;;;;;;;7.65;90.51;93664.19;5073669;28;20203;-75
2021/06/02 03:31:27;;;;;;;5.20;2.37;;;;;;;7.74;89.83;93658.69;5073476;28;20229;-75
2021/06/02 03:34:09;;;;;;;5.83;1.93;;;;;;;7.73;90.06;93667.47;5073454;28;20276;-75
2021/06/02 03:36:43;;;;;;;2.83;1.90;;;;;;;7.74;89.87;93669.09;5073565;28;20203;-75
2021/06/02 03:39:13;;;;;;;3.83;2.20;;;;;;;7.71;90.36;93669.47;5073485;28;20195;-75
2021/06/02 03:41:53;;;;;;;4.17;2.17;;;;;;;7.62;90.55;93670.56;5073219;28;20720;-75
2021/06/02 03:44:36;;;;;;;6.57;1.67;;;;;;;7.51;91.78;93669.25;5073204;28;20581;-75
2021/06/02 03:47:20;;;;;;;4.10;2.17;;;;;;;7.43;91.55;93671.16;5073403;28;20539;-75
2021/06/02 03:49:56;;;;;;;4.00;2.23;;;;;;;7.49;91.61;93675.63;5073180;28;20214;-75
2021/06/02 03:52:36;;;;;;;5.57;2.10;;;;;;;7.57;91.75;93672.91;5073261;28;20222;-75
2021/06/02 03:55:08;;;;;;;3.13;2.13;;;;;;;7.64;91.20;93672.97;5073159;28;20206;-75
2021/06/02 03:57:36;;;;;;;4.37;2.67;;;;;;;7.65;91.40;93678.00;5073078;28;20199;-75
2021/06/02 04:00:10;;;;;;;5.13;2.20;;;;;;;7.63;91.98;93681.75;5073150;28;20194;-75
2021/06/02 04:02:52;;;;;;;5.60;2.60;;;;;;;7.62;91.48;93674.97;5072983;28;20199;-76
2021/06/02 04:05:33;;;;;;;2.77;1.97;;;;;;;7.67;91.77;93683.78;5072918;28;20676;-75
2021/06/02 04:08:12;;;;;;;5.13;2.20;;;;;;;7.68;92.65;93684.63;5073333;28;20640;-75
2021/06/02 04:10:45;;;;;;;3.00;2.13;;;;;;;7.59;93.66;93681.31;5072932;28;20206;-75
2021/06/02 04:13:23;;;;;;;4.37;2.17;;;;;;;7.59;92.82;93684.75;5072988;28;20298;-75
2021/06/02 04:15:49;;;;;;;2.37;1.90;;;;;;;7.57;93.61;93691.09;5072772;28;20199;-75
2021/06/02 04:18:22;;;;;;;3.47;2.03;;;;;;;7.49;94.02;93691.19;5072930;28;20256;-74
2021/06/02 04:20:49;;;;;;;4.17;2.00;;;;;;;7.47;94.57;93693.97;5072808;28;20344;-75
2021/06/02 04:23:16;;;;;;;6.90;2.37;;;;;;;7.50;94.89;93688.44;5072546;28;20605;-75
2021/06/02 04:25:44;;;;;;;3.40;2.07;;;;;;;7.68;94.46;93688.03;5072868;28;20210;-75
2021/06/02 04:28:12;;;;;;;5.53;2.40;;;;;;;7.73;94.52;93683.06;5072690;28;20565;-75
2021/06/02 04:30:47;;;;;;;3.13;2.03;;;;;;;7.88;93.54;93685.59;5072853;28;20203;-75
2021/06/02 04:33:17;;;;;;;11.70;2.67;;;;;;;7.98;93.47;93685.31;5075074;28;20653;-75
2021/06/02 04:35:50;;;;;;;3.80;1.90;;;;;;;8.06;93.74;93692.16;5072771;28;20198;-75
2021/06/02 04:38:19;;;;;;;6.33;1.97;;;;;;;8.05;93.81;93695.75;5075850;28;20725;-75
2021/06/02 04:40:46;;;;;;;7.43;1.97;;;;;;;8.03;93.86;93695.94;5076652;28;20214;-76
2021/06/02 04:43:14;;;;;;;4.53;2.20;;;;;;;8.02;94.71;93704.72;5076827;28;20256;-75
2021/06/02 04:45:53;;;;;;;8.00;2.40;;;;;;;8.11;95.21;93706.22;5076615;28;20293;-75
2021/06/02 04:48:19;;;;;;;9.07;2.13;;;;;;;8.25;94.58;93701.91;5076550;28;20624;-76
2021/06/02 04:50:55;;;;;;;4.37;2.10;;;;;;;8.36;93.93;93705.81;5076456;28;20206;-75
2021/06/02 04:54:04;;;;;;;8.40;2.30;;;;;;;8.48;93.17;93701.72;5076414;28;20661;-75
2021/06/02 04:57:09;;;;;;;6.20;2.07;;;;;;;8.65;94.39;93702.25;5076486;28;20205;-75
2021/06/02 05:00:04;;;;;;;7.70;2.00;;;;;;;8.96;90.05;93713.22;5075254;28;20454;-76
2021/06/02 05:03:03;;;;;;;4.40;1.93;;;;;;;9.14;88.64;93705.72;5076330;28;20771;-75
2021/06/02 05:05:50;;;;;;;2.97;1.63;;;;;;;9.26;90.24;93706.78;5076313;28;20203;-75
2021/06/02 05:09:07;;;;;;;10.97;2.20;;;;;;;9.39;89.90;93702.63;5076056;28;20676;-76
2021/06/02 05:12:06;;;;;;;8.73;2.53;;;;;;;9.52;89.07;93705.25;5014235;28;20236;-76
2021/06/02 05:15:19;;;;;;;2.57;1.63;;;;;;;9.76;87.93;93705.75;5076221;28;20199;-75
2021/06/02 05:18:19;;;;;;;2.73;1.67;;;;;;;10.14;84.50;93694.75;5075821;28;20275;-76
2021/06/02 05:24:34;;;;;;;4.67;1.73;;;;;;;11.43;78.67;93693.38;5075819;28;20246;-76
2021/06/02 05:27:48;;;;;;;4.30;1.77;;;;;;;12.23;75.25;93694.00;5076076;28;20199;-76
2021/06/02 05:31:00;;;;;;;2.53;1.50;;;;;;;12.73;72.83;93691.38;5013853;28;20197;-76
2021/06/02 05:34:04;;;;;;;2.80;1.73;;;;;;;13.26;72.06;93695.28;5075859;28;20202;-76
2021/06/02 05:37:01;;;;;;;4.50;1.87;;;;;;;13.73;69.75;93689.50;5075814;28;20206;-76
2021/06/02 05:39:55;;;;;;;5.33;1.73;;;;;;;15.04;64.14;93688.72;5075684;28;20199;-76
2021/06/02 05:42:24;;;;;;;5.18;1.55;;;;;;;16.72;59.24;93681.56;5075559;28;20228;-76
2021/06/02 05:45:20;;;;;;;1.70;1.27;;;;;;;17.79;55.25;93676.94;5075277;28;20227;-76
2021/06/02 05:48:34;;;;;;;4.50;1.85;;;;;;;17.96;54.20;93679.50;5075745;28;20256;-76
2021/06/02 05:51:39;;;;;;;3.03;1.77;;;;;;;19.22;50.20;93679.22;5069549;28;20198;-75
2021/06/02 05:54:50;;;;;;;2.13;1.33;;;;;;;20.89;46.40;93673.03;5057015;28;20728;-77
2021/06/02 05:58:07;;;;;;;5.00;1.50;;;;;;;22.75;43.86;93676.50;5075372;28;20569;-76
2021/06/02 06:01:24;;;;;;;11.43;2.42;;;;;;;23.94;40.93;93684.91;5075231;28;20730;-76
2021/06/02 06:04:39;;;;;;;7.07;1.92;;;;;;;23.56;42.52;93687.47;5075131;28;20269;-75
2021/06/02 06:07:24;;;;;;;4.25;2.25;;;;;;;23.79;41.49;93693.09;5074963;28;20754;-76
2021/06/02 06:10:10;;;;;;;2.95;1.50;;;;;;;23.40;40.79;93700.16;5075093;28;20202;-75
2021/06/02 06:13:09;;;;;;;8.70;1.80;;;;;;;23.25;40.31;93703.00;5074938;28;20569;-75
2021/06/02 06:15:59;;;;;;;13.93;2.47;;;;;;;22.30;43.58;93705.00;5075106;28;20248;-75
2021/06/02 06:18:44;;;;;;;3.45;1.67;;;;;;;21.65;46.05;93697.03;5074868;28;20650;-75
2021/06/02 06:21:36;;;;;;;5.72;1.40;;;;;;;21.46;47.46;93702.13;5074856;28;20688;-75
2021/06/02 06:24:08;;;;;;;4.65;1.55;;;;;;;21.32;45.80;93697.38;5074521;28;20701;-75
2021/06/02 06:26:38;;;;;;;3.60;1.30;;;;;;;20.89;45.82;93692.41;5073658;28;20430;-75
2021/06/02 06:29:09;;;;;;;3.28;1.38;;;;;;;19.85;47.98;93689.03;5074668;28;20238;-75
2021/06/02 06:31:40;;;;;;;5.30;1.52;;;;;;;19.36;53.53;93690.16;5074474;28;20653;-75
2021/06/02 06:34:09;;;;;;;4.78;1.90;;;;;;;19.62;50.37;93699.00;5074734;28;20207;-75
2021/06/02 06:36:37;;;;;;;2.08;1.20;;;;;;;19.56;52.08;93698.19;5073633;28;20449;-75
2021/06/02 06:39:18;;;;;;;3.38;1.25;;;;;;;19.59;50.84;93704.81;5076895;28;20210;-74
2021/06/02 06:41:47;;;;;;;3.33;1.50;;;;;;;19.64;48.83;93702.19;5074321;28;20661;-75
2021/06/02 06:44:15;;;;;;;5.88;1.80;;;;;;;20.08;47.84;93704.47;5074408;28;20226;-75
2021/06/02 06:46:42;;;;;;;2.92;1.42;;;;;;;20.25;47.50;93706.94;5074381;28;20207;-75
2021/06/02 06:49:14;;;;;;;2.90;1.27;;;;;;;20.50;47.13;93702.69;5074324;28;20221;-75
2021/06/02 06:51:42;;;;;;;3.95;1.35;;;;;;;20.69;47.68;93709.13;5074355;28;20198;-75
2021/06/02 06:54:12;;;;;;;6.95;1.63;;;;;;;20.80;47.78;93706.47;5073878;28;20558;-75
2021/06/02 06:56:41;;;;;;;3.97;1.60;;;;;;;19.81;48.37;93706.53;5074293;28;20285;-75
2021/06/02 06:59:07;;;;;;;3.17;1.48;;;;;;;19.99;49.33;93711.38;5074199;28;20206;-75
2021/06/02 07:01:37;;;;;;;3.15;1.60;;;;;;;19.77;52.77;93708.91;5073184;28;20203;-74
2021/06/02 07:04:04;;;;;;;2.03;1.50;;;;;;;19.48;54.92;93716.41;5073846;28;20292;-76
2021/06/02 07:06:32;;;;;;;4.55;1.80;;;;;;;19.07;53.14;93714.34;5073850;28;20207;-74
2021/06/02 07:08:58;;;;;;;4.93;1.90;;;;;;;18.55;58.22;93717.59;5074089;28;20202;-75
2021/06/02 07:11:26;;;;;;;3.63;1.80;;;;;;;18.20;57.66;93713.56;5073968;28;20210;-74
2021/06/02 07:13:52;;;;;;;2.97;1.67;;;;;;;18.24;55.59;93717.31;5073997;28;20199;-73
2021/06/02 07:16:23;;;;;;;2.53;1.80;;;;;;;18.05;57.58;93720.31;5073747;28;20272;-75
2021/06/02 07:18:51;;;;;;;5.45;1.83;;;;;;;18.21;54.45;93715.97;5073699;28;20198;-76
2021/06/02 07:21:20;;;;;;;4.57;1.98;;;;;;;18.16;59.18;93715.91;5073537;28;20199;-77
2021/06/02 07:23:46;;;;;;;4.10;1.77;;;;;;;18.28;56.40;93721.84;5073551;28;20316;-76
2021/06/02 07:26:12;;;;;;;6.78;2.00;;;;;;;18.15;55.76;93718.81;5073552;28;20199;-75
2021/06/02 07:28:41;;;;;;;5.15;1.70;;;;;;;18.16;60.87;93725.69;5073601;28;20203;-74
2021/06/02 07:31:09;;;;;;;3.50;1.88;;;;;;;18.24;60.46;93719.97;5073389;28;20723;-75
2021/06/02 07:33:36;;;;;;;3.00;1.77;;;;;;;18.45;59.47;93727.03;5073347;28;20202;-75
2021/06/02 07:36:03;;;;;;;3.33;1.77;;;;;;;18.63;54.90;93725.84;5073321;28;20203;-76
2021/06/02 07:38:29;;;;;;;4.18;2.00;;;;;;;18.73;59.52;93719.84;5073503;28;20293;-76
2021/06/02 07:40:56;;;;;;;4.18;1.90;;;;;;;18.83;52.24;93732.41;5073208;28;20213;-76
2021/06/02 07:43:23;;;;;;;3.60;1.70;;;;;;;18.82;50.57;93728.94;5073208;28;20230;-75
2021/06/02 07:45:50;;;;;;;2.33;1.80;;;;;;;18.90;54.64;93733.00;5073292;28;20199;-77
2021/06/02 07:48:16;;;;;;;2.28;1.67;;;;;;;19.11;54.10;93736.56;5073033;28;20209;-75
2021/06/02 07:50:43;;;;;;;4.07;1.63;;;;;;;19.16;50.25;93739.25;5087159;28;20206;-77
2021/06/02 07:53:09;;;;;;;3.40;1.83;;;;;;;19.45;57.03;93733.63;5092091;28;20237;-78
2021/06/02 07:55:35;;;;;;;2.80;1.80;;;;;;;19.61;52.19;93734.50;5093337;28;20277;-76
2021/06/02 07:58:01;;;;;;;2.38;1.60;;;;;;;19.86;51.72;93736.47;5092249;28;20468;-78
2021/06/02 08:00:27;;;;;;;4.68;1.75;;;;;;;19.89;51.04;93741.28;5093222;28;20610;-76
2021/06/02 08:02:56;;;;;;;4.10;1.95;;;;;;;20.00;52.33;93728.06;5093060;28;20205;-74
2021/06/02 08:05:22;;;;;;;5.90;2.00;;;;;;;20.04;52.54;93735.22;5093335;28;20206;-75
2021/06/02 08:07:48;;;;;;;7.40;1.70;;;;;;;20.06;49.90;93734.97;5093268;28;20200;-75
2021/06/02 08:10:16;;;;;;;6.00;1.80;;;;;;;19.87;48.33;93732.00;5093147;28;20289;-75
2021/06/02 08:12:43;;;;;;;4.00;1.80;;;;;;;19.84;49.40;93743.13;5092864;28;20225;-76
2021/06/02 08:15:10;;;;;;;7.03;1.85;;;;;;;20.06;50.64;93737.63;5093045;28;20205;-75
2021/06/02 08:17:38;;;;;;;3.05;1.50;;;;;;;20.19;50.54;93737.13;5092899;28;20202;-74
2021/06/02 08:20:08;;;;;;;4.00;1.60;;;;;;;20.28;48.29;93742.72;5092928;28;20263;-75
2021/06/02 08:22:37;;;;;;;3.03;1.92;;;;;;;20.22;46.42;93739.25;5093052;28;20202;-75
2021/06/02 08:25:04;;;;;;;3.33;1.60;;;;;;;20.09;44.04;93751.16;5092809;28;20241;-75
2021/06/02 08:27:31;;;;;;;8.00;1.95;;;;;;;20.02;46.39;93747.13;5092807;28;20691;-75
2021/06/02 08:29:56;;;;;;;2.60;1.88;;;;;;;19.98;43.75;93743.41;5092825;28;20206;-76
2021/06/02 08:32:24;;;;;;;7.20;2.10;;;;;;;20.10;46.10;93746.63;5092952;28;20208;-75
2021/06/02 08:34:50;;;;;;;4.63;1.98;;;;;;;20.13;43.37;93746.13;5092813;28;20671;-76
2021/06/02 08:37:17;;;;;;;4.90;2.25;;;;;;;20.09;43.78;93745.06;5092899;28;20205;-76
2021/06/02 08:39:44;;;;;;;5.43;1.50;;;;;;;20.04;45.53;93742.41;5092724;28;20565;-75
2021/06/02 08:42:11;;;;;;;3.38;1.45;;;;;;;20.14;42.37;93748.50;5091966;28;20297;-76
2021/06/02 08:44:38;;;;;;;3.42;1.80;;;;;;;20.24;44.16;93745.09;5088048;28;20336;-76
2021/06/02 08:47:05;;;;;;;6.82;1.90;;;;;;;20.32;43.33;93747.25;5072700;28;20198;-76
2021/06/02 08:49:31;;;;;;;3.30;1.70;;;;;;;20.32;50.13;93741.94;5072557;28;20202;-75
2021/06/02 08:51:58;;;;;;;4.63;1.50;;;;;;;20.46;44.41;93749.38;5072492;28;20198;-75
2021/06/02 08:54:25;;;;;;;6.13;1.60;;;;;;;20.43;42.77;93747.25;5072495;28;20198;-75
2021/06/02 08:56:51;;;;;;;7.72;1.42;;;;;;;20.60;40.72;93741.72;5072297;28;20198;-74
2021/06/02 08:59:20;;;;;;;5.07;1.65;;;;;;;20.48;40.72;93752.56;5072338;28;20238;-75
2021/06/02 09:01:46;;;;;;;4.28;1.65;;;;;;;20.26;40.81;93745.63;5072462;28;20210;-75
2021/06/02 09:04:12;;;;;;;2.63;1.67;;;;;;;20.38;45.80;93747.25;5072375;28;20235;-75
2021/06/02 09:06:42;;;;;;;2.58;1.45;;;;;;;20.46;40.68;93754.69;5072385;28;20199;-76
2021/06/02 09:09:11;;;;;;;2.47;1.67;;;;;;;20.52;40.57;93748.34;5072262;28;20256;-75
2021/06/02 09:11:42;;;;;;;3.75;1.70;;;;;;;20.62;40.97;93752.88;5072189;28;20686;-75
2021/06/02 09:14:22;;;;;;;1.80;1.40;;;;;;;20.70;39.77;93755.81;5072524;28;20210;-74
2021/06/02 09:16:49;;;;;;;6.40;1.73;;;;;;;20.79;40.60;93755.31;5072339;28;20202;-76
2021/06/02 09:19:15;;;;;;;2.50;1.70;;;;;;;20.79;38.48;93752.66;5072223;28;20199;-75
2021/06/02 09:21:43;;;;;;;2.38;1.70;;;;;;;20.83;41.58;93759.00;5072321;28;20253;-75
2021/06/02 09:24:09;;;;;;;3.47;1.50;;;;;;;21.00;40.05;93758.75;5072914;28;20246;-74
2021/06/02 09:26:35;;;;;;;5.72;1.42;;;;;;;21.09;41.54;93756.38;5075905;28;20198;-74
2021/06/02 09:29:09;;;;;;;4.55;1.60;;;;;;;21.03;39.28;93755.56;5075945;28;20206;-77
2021/06/02 09:31:40;;;;;;;5.60;1.70;;;;;;;20.95;38.72;93756.09;5075771;28;20195;-78
2021/06/02 09:34:14;;;;;;;2.85;1.77;;;;;;;20.86;39.87;93758.47;5075793;28;20217;-75
2021/06/02 09:36:41;;;;;;;3.95;1.60;;;;;;;20.63;40.63;93757.94;5075535;28;20259;-76
2021/06/02 09:39:10;;;;;;;3.45;1.75;;;;;;;20.69;40.39;93759.53;5075498;28;20198;-74
2021/06/02 09:41:40;;;;;;;3.17;1.90;;;;;;;20.73;41.38;93748.41;5075748;28;20206;-75
2021/06/02 09:44:19;;;;;;;2.40;1.55;;;;;;;20.93;44.39;93751.03;5082182;28;20239;-77
2021/06/02 09:47:02;;;;;;;3.08;1.55;;;;;;;20.99;41.69;93751.84;5095853;28;20209;-76
2021/06/02 09:49:31;;;;;;;2.08;1.50;;;;;;;21.06;40.90;93755.81;5095868;28;20209;-77
2021/06/02 09:51:57;;;;;;;4.22;1.95;;;;;;;21.03;42.67;93753.72;5095723;28;20210;-75
2021/06/02 09:54:24;;;;;;;5.22;1.83;;;;;;;21.03;42.89;93747.59;5095792;28;20208;-76
2021/06/02 09:56:51;;;;;;;7.47;1.88;;;;;;;21.02;43.25;93752.13;5095356;28;20202;-76
2021/06/02 09:59:19;;;;;;;2.88;1.58;;;;;;;21.01;42.69;93755.03;5095477;28;20197;-75
2021/06/02 10:01:57;;;;;;;4.35;2.13;;;;;;;21.12;43.95;93751.31;5095347;28;20198;-75
2021/06/02 10:04:34;;;;;;;5.93;1.67;;;;;;;21.32;42.94;93755.81;5095137;28;20688;-75
2021/06/02 10:07:03;;;;;;;3.38;1.50;;;;;;;21.29;44.18;93750.25;5095381;28;20198;-75
2021/06/02 10:09:31;;;;;;;5.95;1.90;;;;;;;21.31;41.26;93751.56;5095205;28;20289;-75
2021/06/02 10:12:03;;;;;;;4.70;1.92;;;;;;;21.33;42.11;93757.38;5094555;28;20202;-75
2021/06/02 10:14:31;;;;;;;4.30;1.40;;;;;;;21.37;42.33;93757.69;5095329;28;20206;-75
2021/06/02 10:16:58;;;;;;;4.97;1.55;;;;;;;21.45;41.97;93759.78;5095225;28;20202;-74
2021/06/02 10:19:44;;;;;;;5.55;1.85;;;;;;;21.47;43.83;93765.66;5094963;28;20653;-75
2021/06/02 10:22:21;;;;;;;4.82;1.80;;;;;;;21.42;41.21;93766.41;5094903;28;20293;-75
2021/06/02 10:24:49;;;;;;;5.53;1.73;;;;;;;21.53;41.81;93764.59;5094594;28;20237;-75
2021/06/02 10:27:17;;;;;;;6.72;1.90;;;;;;;21.44;40.66;93758.97;5095041;28;20205;-75
2021/06/02 10:29:45;;;;;;;2.85;1.90;;;;;;;21.72;43.33;93754.16;5095010;28;20564;-76
2021/06/02 10:32:11;;;;;;;3.42;1.50;;;;;;;21.86;43.33;93764.22;5094864;28;20194;-77
2021/06/02 10:34:37;;;;;;;5.03;1.70;;;;;;;22.05;43.63;93757.25;5094009;28;20440;-77
2021/06/02 10:37:04;;;;;;;2.67;1.35;;;;;;;21.84;42.44;93758.38;5079834;28;20680;-76
2021/06/02 10:39:33;;;;;;;3.47;1.40;;;;;;;21.63;43.18;93761.09;5074569;28;20203;-77
2021/06/02 10:42:05;;;;;;;3.50;1.50;;;;;;;21.43;41.07;93762.72;5074366;28;20611;-77
2021/06/02 10:44:35;;;;;;;4.53;1.50;;;;;;;21.21;40.65;93764.84;5074140;28;20735;-77
2021/06/02 10:47:04;;;;;;;2.08;1.73;;;;;;;21.17;42.70;93756.63;5074328;28;20566;-75
2021/06/02 10:49:35;;;;;;;2.45;1.55;;;;;;;21.37;39.98;93768.31;5074214;28;20202;-76
2021/06/02 10:52:01;;;;;;;4.38;1.52;;;;;;;21.74;47.42;93761.88;5074473;28;20210;-75
2021/06/02 10:54:34;;;;;;;6.47;1.70;;;;;;;22.19;44.88;93752.13;5074345;28;20234;-75
2021/06/02 10:57:09;;;;;;;2.45;1.60;;;;;;;22.50;44.76;93752.78;5074113;28;20203;-75
2021/06/02 10:59:36;;;;;;;2.22;1.63;;;;;;;22.75;45.47;93755.56;5074197;28;20212;-75
2021/06/02 11:02:06;;;;;;;1.83;1.52;;;;;;;22.98;42.65;93757.53;5073773;28;20199;-75
2021/06/02 11:04:33;;;;;;;8.05;1.55;;;;;;;22.60;39.46;93769.75;5074179;28;20237;-77
2021/06/02 11:07:19;;;;;;;2.97;1.60;;;;;;;22.60;38.74;93767.91;5072597;28;20653;-76
2021/06/02 11:09:55;;;;;;;1.73;1.30;;;;;;;22.54;38.65;93769.78;5074161;28;20301;-77
2021/06/02 11:12:22;;;;;;;5.57;1.58;;;;;;;22.43;38.20;93767.47;5073789;28;20207;-74
2021/06/02 11:14:48;;;;;;;2.65;1.60;;;;;;;22.46;38.64;93765.03;5074122;28;20215;-76
2021/06/02 11:17:18;;;;;;;4.00;1.90;;;;;;;22.51;38.13;93769.53;5073874;28;20296;-75
2021/06/02 11:19:52;;;;;;;1.92;1.60;;;;;;;22.70;39.60;93773.16;5073840;28;20253;-75
2021/06/02 11:22:20;;;;;;;2.03;1.50;;;;;;;22.81;38.19;93778.41;5073809;28;20202;-76
2021/06/02 11:24:59;;;;;;;1.67;1.42;;;;;;;22.86;38.82;93768.50;5073403;28;20239;-76
2021/06/02 11:27:35;;;;;;;4.20;1.58;;;;;;;22.94;37.63;93761.81;5073884;28;20202;-76
2021/06/02 11:30:20;;;;;;;2.30;1.65;;;;;;;23.11;39.06;93764.09;5073626;28;20194;-75
2021/06/02 11:33:09;;;;;;;4.07;1.63;;;;;;;23.37;40.50;93755.91;5073728;28;20205;-75
2021/06/02 11:35:57;;;;;;;3.65;1.58;;;;;;;23.64;38.17;93766.81;5073727;28;20195;-74
2021/06/02 11:38:25;;;;;;;1.50;1.40;;;;;;;24.04;44.13;93768.56;5073326;28;20561;-76
2021/06/02 11:40:51;;;;;;;2.30;1.48;;;;;;;24.01;41.32;93761.91;5073349;28;20207;-75
2021/06/02 11:43:19;;;;;;;3.75;1.52;;;;;;;24.18;39.30;93761.44;5073209;28;20203;-75
2021/06/02 11:45:49;;;;;;;2.38;1.50;;;;;;;24.36;38.59;93760.69;5073139;28;20231;-75
2021/06/02 11:48:22;;;;;;;2.58;1.65;;;;;;;24.55;39.45;93759.94;5072692;28;20199;-75
2021/06/02 11:50:48;;;;;;;2.95;1.33;;;;;;;24.48;39.79;93759.47;5073374;28;20241;-76
2021/06/02 11:53:14;;;;;;;3.33;1.40;;;;;;;24.30;35.69;93769.84;5073207;28;20187;-76
2021/06/02 11:55:40;;;;;;;2.35;1.55;;;;;;;23.45;36.08;93761.41;5073208;28;20259;-76
2021/06/02 11:58:06;;;;;;;3.03;1.52;;;;;;;23.17;36.73;93765.66;5073103;28;20256;-76
2021/06/02 12:00:34;;;;;;;4.50;1.98;;;;;;;23.27;38.02;93768.22;5072935;28;20201;-74
2021/06/02 12:03:02;;;;;;;2.85;1.50;;;;;;;23.61;39.90;93764.72;5072983;28;20666;-77
2021/06/02 12:05:31;;;;;;;5.28;1.38;;;;;;;23.94;40.42;93767.59;5073066;28;20325;-75
2021/06/02 12:07:59;;;;;;;2.63;1.60;;;;;;;24.31;36.00;93770.63;5073005;28;20195;-75
2021/06/02 12:10:28;;;;;;;2.00;1.42;;;;;;;24.78;36.91;93768.97;5073221;28;20234;-76
2021/06/02 12:12:54;;;;;;;7.50;1.35;;;;;;;24.96;34.24;93767.34;5072850;28;20209;-76
2021/06/02 12:15:20;;;;;;;4.20;1.60;;;;;;;25.42;36.91;93760.50;5073125;28;20559;-75